Time;durP1;ratioP1;P1;durP2;ratioP2;P2;SDS_P1;SDS_P2;PMS_P1;PMS_P2;Temp;Humidity;BMP_temperature;BMP_pressure;BME280_temperature;BME280_humidity;BME280_pressure;Samples;Min_cycle;Max_cycle;Signal;HPM_P1;HPM_P2
2021/01/06 00:01:11;;;;;;;9.57;3.88;;;3.80;88.50;;;;;;10044441;28;19979;-66
2021/01/06 00:06:14;;;;;;;9.50;4.78;;;3.80;88.40;;;;;;10039244;28;20318;-66
2021/01/06 00:11:04;;;;;;;7.35;3.88;;;3.70;88.30;;;;;;10043269;28;20037;-66
2021/01/06 00:15:56;;;;;;;8.32;3.40;;;3.60;88.70;;;;;;10039796;28;20555;-65
2021/01/06 00:20:48;;;;;;;12.43;5.03;;;3.60;88.80;;;;;;10042496;28;20414;-65
2021/01/06 00:25:42;;;;;;;6.90;3.90;;;3.70;88.70;;;;;;10036440;28;20037;-65
2021/01/06 00:30:36;;;;;;;8.02;4.05;;;3.70;88.60;;;;;;10036313;28;20132;-65
2021/01/06 00:35:26;;;;;;;10.52;4.65;;;3.70;88.50;;;;;;10018006;28;20037;-65
2021/01/06 00:40:19;;;;;;;7.50;4.15;;;3.70;88.60;;;;;;10040525;28;20526;-64
2021/01/06 00:45:15;;;;;;;9.50;5.13;;;3.60;88.90;;;;;;10039641;28;20034;-63
2021/01/06 00:50:06;;;;;;;9.50;4.22;;;3.70;88.90;;;;;;10040708;28;20039;-64
2021/01/06 00:54:56;;;;;;;6.43;3.45;;;3.60;89.00;;;;;;10038229;28;20060;-64
2021/01/06 00:59:47;;;;;;;6.80;3.65;;;3.50;89.00;;;;;;10037903;28;20029;-64
2021/01/06 01:04:37;;;;;;;7.70;3.60;;;3.60;88.90;;;;;;10040232;28;20484;-65
2021/01/06 01:09:28;;;;;;;7.18;3.60;;;3.60;88.80;;;;;;10035084;28;20438;-65
2021/01/06 01:14:19;;;;;;;8.65;3.95;;;3.60;88.70;;;;;;10038739;28;20029;-65
2021/01/06 01:19:10;;;;;;;6.22;3.63;;;3.60;88.70;;;;;;10022869;28;20044;-66
2021/01/06 01:24:01;;;;;;;8.15;3.30;;;3.60;88.60;;;;;;10038394;28;20041;-64
2021/01/06 01:28:52;;;;;;;9.85;3.80;;;3.50;88.70;;;;;;10041501;28;20400;-65
2021/01/06 01:33:43;;;;;;;7.38;3.88;;;3.50;89.00;;;;;;10037372;28;20041;-63
2021/01/06 01:38:33;;;;;;;8.05;3.33;;;3.60;88.70;;;;;;10037013;28;20033;-64
2021/01/06 01:43:24;;;;;;;8.85;3.78;;;3.60;88.80;;;;;;10036969;28;20037;-63
2021/01/06 01:48:27;;;;;;;9.82;4.43;;;3.60;88.90;;;;;;10033380;28;20389;-64
2021/01/06 01:53:26;;;;;;;8.30;3.85;;;3.60;88.90;;;;;;10038957;28;20034;-65
2021/01/06 01:58:21;;;;;;;7.75;3.80;;;3.50;88.90;;;;;;10052889;28;20021;-64
2021/01/06 02:03:30;;;;;;;9.88;4.00;;;3.50;89.10;;;;;;10048230;28;20100;-64
2021/01/06 02:08:35;;;;;;;8.30;3.38;;;3.50;88.90;;;;;;10054385;28;20042;-64
2021/01/06 02:13:34;;;;;;;7.40;3.85;;;3.50;89.10;;;;;;10058943;28;20498;-63
2021/01/06 02:18:25;;;;;;;7.65;3.88;;;3.50;88.90;;;;;;10048590;28;20021;-64
2021/01/06 02:23:15;;;;;;;8.10;4.32;;;3.50;89.10;;;;;;10054462;28;20033;-65
2021/01/06 02:28:06;;;;;;;7.68;3.58;;;3.40;89.40;;;;;;10054760;28;20033;-65
2021/01/06 02:32:57;;;;;;;8.52;3.40;;;3.40;89.50;;;;;;10030294;28;20025;-64
2021/01/06 02:37:48;;;;;;;7.05;3.45;;;3.40;89.30;;;;;;10051097;28;20036;-65
2021/01/06 02:42:39;;;;;;;8.27;4.10;;;3.40;89.40;;;;;;10047796;28;20037;-65
2021/01/06 02:47:30;;;;;;;5.50;3.28;;;3.30;89.40;;;;;;10047131;28;20426;-65
2021/01/06 02:52:36;;;;;;;6.90;3.50;;;3.30;89.40;;;;;;10051170;28;20039;-66
2021/01/06 02:57:26;;;;;;;7.18;3.65;;;3.40;89.30;;;;;;10047674;28;21407;-65
2021/01/06 03:02:22;;;;;;;6.65;3.75;;;3.40;89.40;;;;;;10045664;28;20049;-65
2021/01/06 03:07:13;;;;;;;5.27;3.27;;;3.40;89.30;;;;;;10043981;28;20499;-64
2021/01/06 03:12:07;;;;;;;10.05;4.53;;;3.30;89.40;;;;;;10041174;28;20032;-65
2021/01/06 03:16:59;;;;;;;8.18;4.00;;;3.40;88.90;;;;;;10044703;28;20095;-63
2021/01/06 03:21:52;;;;;;;6.95;3.40;;;3.40;89.00;;;;;;10039256;28;20029;-66
2021/01/06 03:26:44;;;;;;;9.07;4.25;;;3.40;89.00;;;;;;10041268;28;20033;-63
2021/01/06 03:31:39;;;;;;;8.38;4.18;;;3.50;88.80;;;;;;10042406;28;20064;-63
2021/01/06 03:36:38;;;;;;;4.70;2.28;;;3.40;89.00;;;;;;10043966;28;20021;-64
2021/01/06 03:41:30;;;;;;;7.63;3.63;;;3.30;89.20;;;;;;10043827;28;20041;-64
2021/01/06 03:46:35;;;;;;;5.57;3.67;;;3.30;89.40;;;;;;10042047;28;20122;-64
2021/01/06 03:51:49;;;;;;;5.68;3.75;;;3.30;89.30;;;;;;10029438;28;20521;-65
2021/01/06 03:56:40;;;;;;;6.75;3.70;;;3.30;89.40;;;;;;10039089;28;20088;-64
2021/01/06 04:01:50;;;;;;;7.55;3.72;;;3.20;89.40;;;;;;10038920;28;20687;-65
2021/01/06 04:06:45;;;;;;;9.13;3.80;;;3.30;89.30;;;;;;10039198;28;20550;-66
2021/01/06 04:11:37;;;;;;;6.90;3.47;;;3.30;89.20;;;;;;10044213;28;20025;-66
2021/01/06 04:16:28;;;;;;;12.07;4.82;;;3.30;89.00;;;;;;10038102;28;20032;-64
2021/01/06 04:21:19;;;;;;;7.22;3.45;;;3.20;88.70;;;;;;10033984;28;20333;-64
2021/01/06 04:26:14;;;;;;;7.28;3.58;;;3.20;89.40;;;;;;10025782;28;20053;-66
2021/01/06 04:31:18;;;;;;;8.80;4.15;;;3.20;89.50;;;;;;10042144;28;20116;-65
2021/01/06 04:36:26;;;;;;;8.40;3.72;;;3.20;89.20;;;;;;10040645;28;20041;-66
2021/01/06 04:41:35;;;;;;;10.73;4.32;;;3.20;89.50;;;;;;10042157;28;20060;-64
2021/01/06 04:46:43;;;;;;;10.32;3.65;;;3.20;89.40;;;;;;10038203;28;20033;-66
2021/01/06 04:51:58;;;;;;;9.07;3.63;;;3.20;89.50;;;;;;10034944;28;20030;-64
2021/01/06 04:57:13;;;;;;;8.15;3.92;;;3.20;89.30;;;;;;10040818;28;20068;-65
2021/01/06 05:02:38;;;;;;;11.70;4.85;;;3.20;89.60;;;;;;10040034;28;20055;-65
2021/01/06 05:07:37;;;;;;;10.50;4.05;;;3.10;89.00;;;;;;10034926;28;20423;-65
2021/01/06 05:12:39;;;;;;;8.95;4.20;;;3.10;89.30;;;;;;10041112;28;20392;-65
2021/01/06 05:17:29;;;;;;;8.98;4.43;;;3.20;89.20;;;;;;10040457;28;20026;-65
2021/01/06 05:22:20;;;;;;;10.88;3.75;;;3.20;88.90;;;;;;10035402;28;20447;-64
2021/01/06 05:27:13;;;;;;;10.05;3.63;;;3.20;89.00;;;;;;10034635;28;20036;-64
2021/01/06 05:32:04;;;;;;;7.72;3.78;;;3.30;89.00;;;;;;10034589;28;20491;-64
2021/01/06 05:36:55;;;;;;;8.63;3.67;;;3.20;89.00;;;;;;10036585;28;20040;-64
2021/01/06 05:41:48;;;;;;;7.93;3.95;;;3.10;89.30;;;;;;10031015;28;20076;-63
2021/01/06 05:46:45;;;;;;;6.88;3.42;;;3.00;89.70;;;;;;10033923;28;20026;-65
2021/01/06 05:51:41;;;;;;;7.32;3.05;;;3.10;89.80;;;;;;10033411;28;20530;-66
2021/01/06 05:56:38;;;;;;;;;;;3.00;89.50;;;;;;10038309;28;20522;-66
2021/01/06 06:01:42;;;;;;;;;;;3.00;89.30;;;;;;10036812;28;19943;-65
2021/01/06 06:06:48;;;;;;;7.68;3.58;;;3.10;89.70;;;;;;10031778;28;20020;-66
2021/01/06 06:12:16;;;;;;;10.25;4.20;;;3.00;89.60;;;;;;10037405;28;20567;-64
2021/01/06 06:17:33;;;;;;;10.25;4.03;;;3.00;89.70;;;;;;10036534;28;20053;-63
2021/01/06 06:22:27;;;;;;;;;;;3.10;89.60;;;;;;10036115;28;20031;-64
2021/01/06 06:27:39;;;;;;;9.38;3.10;;;3.10;89.20;;;;;;10039345;28;19921;-64
2021/01/06 06:32:30;;;;;;;8.20;3.72;;;3.00;90.00;;;;;;10034103;28;20049;-64
2021/01/06 06:37:21;;;;;;;6.88;3.30;;;3.00;89.90;;;;;;10036688;28;20558;-65
2021/01/06 06:42:35;;;;;;;6.05;2.92;;;2.90;90.00;;;;;;10039849;28;20092;-65
2021/01/06 06:47:49;;;;;;;3.10;2.38;;;3.00;89.80;;;;;;10042595;28;20559;-64
2021/01/06 06:52:51;;;;;;;6.95;3.50;;;3.00;90.00;;;;;;10040728;28;20038;-65
2021/01/06 06:57:56;;;;;;;5.93;3.05;;;2.90;90.00;;;;;;10042459;28;20033;-65
2021/01/06 07:03:01;;;;;;;6.68;3.15;;;3.00;89.80;;;;;;10043209;28;20072;-63
2021/01/06 07:07:53;;;;;;;7.93;3.05;;;3.00;89.70;;;;;;10040760;28;20128;-65
2021/01/06 07:12:45;;;;;;;7.68;4.32;;;2.90;90.00;;;;;;10042581;28;20299;-65
2021/01/06 07:17:41;;;;;;;7.05;3.45;;;3.00;90.00;;;;;;10045915;28;20056;-66
2021/01/06 07:22:40;;;;;;;7.90;3.15;;;2.90;89.80;;;;;;10041145;28;20289;-65
2021/01/06 07:27:33;;;;;;;10.70;4.03;;;2.90;90.10;;;;;;10042773;28;20033;-64
2021/01/06 07:32:40;;;;;;;8.90;4.45;;;3.00;90.10;;;;;;10025743;28;20079;-65
2021/01/06 07:37:44;;;;;;;7.78;3.28;;;2.90;89.50;;;;;;10038762;28;20037;-66
2021/01/06 07:42:40;;;;;;;7.72;3.50;;;2.90;90.00;;;;;;10040728;28;20083;-66
2021/01/06 07:47:34;;;;;;;7.68;3.50;;;3.00;89.70;;;;;;10042456;28;20103;-63
2021/01/06 07:52:53;;;;;;;6.85;3.60;;;3.10;89.50;;;;;;10040146;28;20072;-65
2021/01/06 07:58:02;;;;;;;6.82;3.45;;;3.00;89.70;;;;;;10040769;28;20428;-66
2021/01/06 08:03:01;;;;;;;8.82;4.20;;;3.00;89.60;;;;;;10033880;28;20423;-65
2021/01/06 08:08:02;;;;;;;6.40;2.83;;;2.90;89.70;;;;;;10021743;28;20025;-65
2021/01/06 08:12:52;;;;;;;7.55;3.33;;;3.00;89.80;;;;;;10020925;28;20190;-67
2021/01/06 08:17:52;;;;;;;7.82;3.42;;;3.20;89.40;;;;;;10038138;28;20082;-64
2021/01/06 08:23:09;;;;;;;8.10;3.95;;;3.20;89.60;;;;;;10037990;28;20399;-65
2021/01/06 08:28:13;;;;;;;;;;;3.30;89.10;;;;;;10032779;28;20066;-64
2021/01/06 08:33:09;;;;;;;8.68;4.40;;;3.30;89.10;;;;;;10035928;28;20269;-65
2021/01/06 08:38:00;;;;;;;7.55;4.18;;;3.30;88.90;;;;;;10036831;28;20037;-65
2021/01/06 08:42:51;;;;;;;8.70;4.18;;;3.20;89.20;;;;;;10039877;28;20444;-65
2021/01/06 08:47:41;;;;;;;10.05;4.20;;;3.10;89.10;;;;;;10032923;28;20026;-66
2021/01/06 08:52:32;;;;;;;11.80;5.72;;;3.20;89.10;;;;;;10020115;28;20037;-65
2021/01/06 08:57:30;;;;;;;6.47;3.25;;;3.20;88.70;;;;;;10039262;28;20113;-65
2021/01/06 09:02:34;;;;;;;8.60;3.17;;;3.20;89.30;;;;;;10034026;28;20530;-65
2021/01/06 09:07:28;;;;;;;5.55;3.50;;;3.10;89.60;;;;;;10031812;28;20052;-66
2021/01/06 09:12:55;;;;;;;5.38;2.95;;;3.30;89.40;;;;;;10039449;28;20411;-63
2021/01/06 09:18:12;;;;;;;;;;;3.30;89.50;;;;;;10036032;28;20036;-66
2021/01/06 09:23:04;;;;;;;6.28;3.33;;;3.30;89.10;;;;;;10031336;28;19924;-64
2021/01/06 09:28:00;;;;;;;5.97;3.25;;;3.30;89.20;;;;;;10034473;28;20034;-65
2021/01/06 09:32:54;;;;;;;7.35;3.75;;;3.30;89.40;;;;;;10035461;28;20492;-63
2021/01/06 09:38:03;;;;;;;9.57;3.72;;;3.30;89.60;;;;;;10036661;28;20053;-65
2021/01/06 09:43:05;;;;;;;9.27;3.70;;;3.40;89.30;;;;;;10033762;28;20033;-64
2021/01/06 09:48:01;;;;;;;6.68;3.58;;;3.40;89.20;;;;;;10036384;28;20068;-65
2021/01/06 09:52:53;;;;;;;5.75;3.20;;;3.40;89.30;;;;;;10038195;28;20044;-63
2021/01/06 09:57:48;;;;;;;9.80;3.28;;;3.40;89.40;;;;;;10039266;28;20067;-63
2021/01/06 10:02:39;;;;;;;8.07;3.72;;;3.40;89.30;;;;;;10032878;28;20054;-64
2021/01/06 10:07:52;;;;;;;6.22;3.60;;;3.40;89.20;;;;;;10036473;28;20033;-66
2021/01/06 10:13:17;;;;;;;5.22;3.83;;;3.40;89.20;;;;;;10028646;28;20043;-66
2021/01/06 10:18:29;;;;;;;9.85;3.63;;;3.30;89.20;;;;;;10038204;28;20029;-64
2021/01/06 10:23:38;;;;;;;6.30;4.20;;;3.40;89.30;;;;;;10044041;28;20462;-64
2021/01/06 10:28:34;;;;;;;9.70;5.15;;;3.50;89.00;;;;;;10027318;28;20026;-67
2021/01/06 10:33:25;;;;;;;6.55;3.20;;;3.60;89.10;;;;;;10036688;28;20660;-66
2021/01/06 10:38:24;;;;;;;5.10;3.45;;;3.60;88.80;;;;;;10039586;28;20029;-65
2021/01/06 10:43:33;;;;;;;7.25;4.68;;;3.60;89.10;;;;;;10043304;28;20048;-65
2021/01/06 10:48:41;;;;;;;6.07;3.47;;;3.70;88.80;;;;;;10046675;28;20026;-65
2021/01/06 10:53:40;;;;;;;8.35;4.03;;;3.90;88.80;;;;;;10040421;28;20026;-67
2021/01/06 10:59:03;;;;;;;10.23;4.65;;;4.00;88.60;;;;;;10044887;28;20038;-67
2021/01/06 11:04:34;;;;;;;9.07;5.00;;;4.00;88.60;;;;;;10042820;28;20052;-65
2021/01/06 11:09:40;;;;;;;9.57;4.45;;;4.00;88.90;;;;;;10041857;28;20029;-69
2021/01/06 11:14:43;;;;;;;;;;;4.10;88.50;;;;;;10038644;28;20771;-64
2021/01/06 11:19:57;;;;;;;8.05;4.53;;;4.10;88.20;;;;;;10034259;28;19913;-63
2021/01/06 11:25:03;;;;;;;8.95;4.32;;;4.10;88.00;;;;;;10041389;28;20072;-65
2021/01/06 11:30:06;;;;;;;7.68;4.00;;;4.10;88.00;;;;;;10040048;28;20506;-62
2021/01/06 11:35:19;;;;;;;8.23;4.10;;;4.00;88.40;;;;;;10037711;28;20948;-62
2021/01/06 11:40:33;;;;;;;8.18;4.32;;;4.10;88.40;;;;;;10022496;28;20083;-68
2021/01/06 11:45:29;;;;;;;7.57;3.67;;;4.10;87.80;;;;;;10028205;28;20503;-67
2021/01/06 11:50:38;;;;;;;;;;;3.90;87.80;;;;;;10042313;28;20486;-67
2021/01/06 11:55:37;;;;;;;7.40;4.38;;;4.10;88.10;;;;;;10024339;28;20046;-69
2021/01/06 12:00:41;;;;;;;10.95;5.60;;;4.30;87.50;;;;;;10040793;28;20021;-67
2021/01/06 12:05:40;;;;;;;9.35;5.15;;;4.10;87.10;;;;;;10039379;28;20037;-68
2021/01/06 12:10:36;;;;;;;11.18;4.70;;;3.90;87.60;;;;;;10033652;28;20044;-68
2021/01/06 12:15:45;;;;;;;10.75;4.35;;;4.00;87.70;;;;;;10041223;28;20427;-66
2021/01/06 12:20:36;;;;;;;8.23;4.97;;;4.20;87.50;;;;;;10043464;28;20053;-65
2021/01/06 12:25:26;;;;;;;10.55;5.07;;;4.10;87.30;;;;;;10046224;28;20487;-67
2021/01/06 12:30:17;;;;;;;6.82;4.15;;;4.30;87.20;;;;;;10046007;28;20108;-64
2021/01/06 12:35:13;;;;;;;7.93;3.78;;;4.20;86.80;;;;;;10040276;28;20427;-67
2021/01/06 12:40:24;;;;;;;7.93;4.03;;;4.20;87.00;;;;;;10042232;28;20139;-66
2021/01/06 12:45:14;;;;;;;8.10;4.03;;;4.00;87.20;;;;;;10038373;28;20045;-67
2021/01/06 12:50:28;;;;;;;6.90;4.22;;;4.20;87.20;;;;;;10041904;28;20029;-69
2021/01/06 12:55:22;;;;;;;7.82;3.95;;;4.20;86.90;;;;;;10038335;28;20108;-68
2021/01/06 13:00:27;;;;;;;6.82;3.92;;;4.20;87.00;;;;;;10038696;28;20124;-68
2021/01/06 13:05:24;;;;;;;9.25;4.90;;;4.30;86.90;;;;;;10036114;28;20026;-67
2021/01/06 13:10:15;;;;;;;8.18;4.68;;;4.20;86.90;;;;;;10039128;28;20044;-69
2021/01/06 13:15:16;;;;;;;7.93;4.43;;;4.20;86.60;;;;;;10035056;28;20128;-68
2021/01/06 13:20:38;;;;;;;8.52;4.55;;;4.00;86.70;;;;;;10037589;28;20380;-68
2021/01/06 13:25:34;;;;;;;12.40;5.65;;;3.90;87.10;;;;;;9919386;28;20175;-67
2021/01/06 13:30:30;;;;;;;8.33;4.27;;;3.90;87.30;;;;;;9916738;28;20133;-67
2021/01/06 13:35:44;;;;;;;9.52;4.82;;;3.90;87.10;;;;;;9915337;28;20043;-68
2021/01/06 13:40:37;;;;;;;13.52;5.47;;;3.90;86.60;;;;;;9906026;28;20039;-67
2021/01/06 13:46:06;;;;;;;6.38;4.25;;;3.90;86.90;;;;;;9914645;28;20117;-69
2021/01/06 13:50:59;;;;;;;10.02;4.45;;;3.90;86.60;;;;;;9773975;29;20518;-68
2021/01/06 13:56:26;;;;;;;8.05;4.22;;;3.90;86.80;;;;;;9770081;29;20072;-68
2021/01/06 14:01:31;;;;;;;13.38;5.03;;;4.00;86.50;;;;;;9815231;29;20044;-68
2021/01/06 14:06:25;;;;;;;10.53;5.00;;;4.00;87.00;;;;;;9845177;29;20063;-68
2021/01/06 14:11:25;;;;;;;7.50;4.22;;;4.10;87.00;;;;;;9844794;29;20059;-68
2021/01/06 14:16:25;;;;;;;7.25;4.05;;;4.10;87.10;;;;;;9841527;29;20039;-69
2021/01/06 14:21:22;;;;;;;10.32;6.75;;;3.90;86.70;;;;;;9842498;29;20040;-68
2021/01/06 14:26:26;;;;;;;8.45;4.10;;;3.90;87.20;;;;;;10036609;28;20764;-69
2021/01/06 14:31:28;;;;;;;6.55;3.10;;;4.00;87.00;;;;;;10020245;28;20450;-69
2021/01/06 14:37:03;;;;;;;6.72;3.55;;;4.00;87.00;;;;;;10039991;28;20105;-70
2021/01/06 14:42:15;;;;;;;6.13;3.05;;;4.00;86.70;;;;;;9885384;28;20043;-67
2021/01/06 14:47:08;;;;;;;4.45;2.90;;;3.80;87.20;;;;;;9884241;28;20819;-65
2021/01/06 14:52:14;;;;;;;6.78;3.42;;;3.80;87.30;;;;;;9879027;28;20035;-67
2021/01/06 14:57:40;;;;;;;9.18;4.07;;;3.80;87.50;;;;;;9886616;28;20051;-67
2021/01/06 15:02:35;;;;;;;9.35;4.93;;;3.80;87.10;;;;;;9869943;28;20390;-67
2021/01/06 15:07:34;;;;;;;8.83;4.60;;;3.80;86.50;;;;;;9890943;28;20617;-68
2021/01/06 15:12:34;;;;;;;8.95;4.68;;;3.90;86.80;;;;;;9885410;28;20103;-67
2021/01/06 15:17:29;;;;;;;8.27;4.15;;;3.90;86.60;;;;;;9942863;28;20038;-67
2021/01/06 15:22:26;;;;;;;11.65;4.82;;;3.70;86.80;;;;;;10000605;28;20465;-64
2021/01/06 15:27:28;;;;;;;9.27;4.80;;;3.70;86.60;;;;;;10003498;28;20038;-63
2021/01/06 15:32:40;;;;;;;7.28;4.38;;;3.70;86.80;;;;;;9997397;28;20041;-65
2021/01/06 15:37:34;;;;;;;8.13;4.45;;;3.50;86.80;;;;;;10002808;28;20168;-62
2021/01/06 15:42:28;;;;;;;8.32;4.60;;;3.60;87.10;;;;;;9998990;28;20056;-65
2021/01/06 15:47:26;;;;;;;6.38;3.65;;;3.60;86.80;;;;;;9999044;28;20440;-65
2021/01/06 15:52:25;;;;;;;7.63;3.78;;;3.70;87.00;;;;;;10001594;28;20488;-62
2021/01/06 15:57:17;;;;;;;8.50;3.88;;;3.70;87.50;;;;;;9996442;28;20583;-68
2021/01/06 16:02:26;;;;;;;8.88;4.40;;;3.80;86.60;;;;;;10020324;28;20056;-63
2021/01/06 16:07:21;;;;;;;10.25;4.20;;;3.60;86.70;;;;;;10039391;28;20029;-70
2021/01/06 16:12:29;;;;;;;6.88;3.83;;;3.60;86.80;;;;;;10043308;28;20044;-68
2021/01/06 16:17:26;;;;;;;13.43;5.63;;;3.70;86.90;;;;;;10041419;28;20029;-62
2021/01/06 16:22:26;;;;;;;8.10;4.70;;;3.70;86.80;;;;;;10038586;28;20040;-63
2021/01/06 16:27:28;;;;;;;9.60;4.65;;;3.80;86.60;;;;;;10036625;28;20038;-69
2021/01/06 16:32:29;;;;;;;7.38;4.32;;;3.70;86.90;;;;;;10040565;28;20573;-62
2021/01/06 16:37:21;;;;;;;8.40;4.43;;;3.70;87.10;;;;;;10040109;28;20029;-63
2021/01/06 16:42:16;;;;;;;9.07;4.50;;;3.70;87.00;;;;;;10036719;28;20045;-64
2021/01/06 16:47:16;;;;;;;9.88;4.93;;;3.60;87.10;;;;;;10022780;28;20042;-69
2021/01/06 16:52:19;;;;;;;9.70;5.30;;;3.70;86.90;;;;;;10037513;28;20037;-63
2021/01/06 16:57:33;;;;;;;10.45;4.45;;;3.80;86.90;;;;;;10038602;28;20085;-68
2021/01/06 17:02:25;;;;;;;11.23;5.03;;;3.70;87.00;;;;;;10040392;28;20045;-68
2021/01/06 17:07:26;;;;;;;8.45;4.70;;;3.70;87.10;;;;;;10040053;28;20060;-68
2021/01/06 17:12:35;;;;;;;14.57;6.70;;;3.70;87.00;;;;;;10035654;28;20030;-63
2021/01/06 17:17:32;;;;;;;33.05;14.68;;;3.60;87.30;;;;;;10034980;28;20127;-63
2021/01/06 17:22:29;;;;;;;194.30;94.03;;;3.80;87.20;;;;;;10040385;28;20030;-71
2021/01/06 17:27:26;;;;;;;17.75;10.15;;;4.20;85.50;;;;;;10018313;28;20148;-71
2021/01/06 17:32:24;;;;;;;13.07;6.05;;;4.40;84.90;;;;;;10037688;28;20531;-70
2021/01/06 17:37:45;;;;;;;13.63;5.90;;;4.10;85.40;;;;;;10036406;28;20192;-68
2021/01/06 17:42:36;;;;;;;15.43;6.00;;;3.90;86.60;;;;;;10032945;28;20022;-68
2021/01/06 17:47:27;;;;;;;37.80;15.48;;;3.70;87.10;;;;;;10036088;28;20395;-71
2021/01/06 17:52:17;;;;;;;14.57;7.70;;;3.60;87.90;;;;;;10037421;28;20040;-68
2021/01/06 17:57:08;;;;;;;16.92;7.88;;;3.50;88.10;;;;;;10038170;28;20048;-69
2021/01/06 18:01:59;;;;;;;14.95;5.57;;;3.60;87.70;;;;;;10035982;28;20140;-67
2021/01/06 18:07:16;;;;;;;13.27;6.25;;;3.50;88.30;;;;;;10041039;28;20040;-70
2021/01/06 18:12:10;;;;;;;11.70;4.90;;;3.50;88.20;;;;;;10038146;28;20539;-68
2021/01/06 18:17:07;;;;;;;14.80;6.35;;;3.40;88.60;;;;;;10038543;28;20034;-67
2021/01/06 18:22:07;;;;;;;14.10;6.63;;;3.40;88.30;;;;;;10039335;28;20025;-67
2021/01/06 18:26:59;;;;;;;33.53;12.73;;;3.40;88.50;;;;;;10030948;28;20116;-66
2021/01/06 18:31:49;;;;;;;39.92;18.52;;;3.70;88.20;;;;;;10033489;28;20041;-70
2021/01/06 18:36:40;;;;;;;15.85;8.00;;;4.30;86.30;;;;;;10030630;28;20045;-64
2021/01/06 18:41:33;;;;;;;10.23;4.65;;;4.30;86.00;;;;;;10046756;28;20109;-68
2021/01/06 18:46:27;;;;;;;12.45;5.75;;;3.90;87.30;;;;;;10042423;28;20032;-70
2021/01/06 18:51:18;;;;;;;9.52;5.32;;;3.70;88.30;;;;;;10049001;28;20428;-68
2021/01/06 18:56:08;;;;;;;11.15;5.15;;;3.50;88.70;;;;;;10044410;28;20080;-69
2021/01/06 19:01:16;;;;;;;7.13;4.50;;;3.60;88.80;;;;;;10024828;28;20069;-70
2021/01/06 19:06:07;;;;;;;12.60;5.53;;;3.60;88.70;;;;;;10041363;28;20026;-67
2021/01/06 19:11:13;;;;;;;12.68;4.78;;;3.50;88.60;;;;;;10039087;28;20037;-67
2021/01/06 19:16:04;;;;;;;8.45;4.95;;;3.60;88.60;;;;;;10041548;28;21002;-66
2021/01/06 19:20:58;;;;;;;8.40;4.30;;;3.60;88.60;;;;;;10038077;28;20048;-68
2021/01/06 19:25:50;;;;;;;8.73;4.68;;;3.50;88.60;;;;;;10035946;28;20069;-62
2021/01/06 19:30:47;;;;;;;10.48;4.93;;;3.40;89.00;;;;;;10037996;28;20496;-66
2021/01/06 19:35:38;;;;;;;8.35;4.38;;;3.50;88.90;;;;;;10044845;28;20499;-66
2021/01/06 19:40:30;;;;;;;12.27;5.30;;;3.60;88.60;;;;;;10019880;28;20029;-66
2021/01/06 19:45:23;;;;;;;11.20;4.60;;;3.70;88.40;;;;;;10043290;28;20032;-67
2021/01/06 19:50:15;;;;;;;7.85;4.55;;;3.50;89.00;;;;;;10040907;28;20396;-67
2021/01/06 19:55:06;;;;;;;8.63;4.13;;;3.40;89.20;;;;;;10044236;28;21109;-67
2021/01/06 19:59:57;;;;;;;6.80;3.55;;;3.40;89.40;;;;;;10039069;28;20389;-67
2021/01/06 20:05:00;;;;;;;8.75;4.75;;;3.40;89.50;;;;;;10042011;28;20038;-67
2021/01/06 20:09:51;;;;;;;11.63;5.43;;;3.30;89.40;;;;;;10037208;28;20480;-67
2021/01/06 20:14:42;;;;;;;13.50;5.47;;;3.40;89.40;;;;;;10026649;28;20033;-68
2021/01/06 20:19:33;;;;;;;9.10;4.45;;;3.40;89.20;;;;;;10036836;28;20399;-68
2021/01/06 20:24:23;;;;;;;10.80;5.93;;;3.40;89.30;;;;;;10037553;28;20033;-67
2021/01/06 20:29:14;;;;;;;9.30;4.25;;;3.40;89.40;;;;;;10037223;28;20465;-63
2021/01/06 20:34:06;;;;;;;10.13;5.80;;;3.40;89.20;;;;;;10029861;28;20110;-68
2021/01/06 20:38:58;;;;;;;9.05;5.18;;;3.40;89.10;;;;;;10039783;28;20104;-70
2021/01/06 20:43:49;;;;;;;8.90;5.10;;;3.30;89.50;;;;;;10038561;28;20032;-69
2021/01/06 20:48:39;;;;;;;9.20;4.38;;;3.30;89.60;;;;;;10029681;28;20045;-67
2021/01/06 20:53:30;;;;;;;9.55;4.38;;;3.20;89.50;;;;;;10030757;28;20029;-68
2021/01/06 20:58:21;;;;;;;9.15;4.75;;;3.20;89.80;;;;;;10031787;28;20033;-69
2021/01/06 21:03:12;;;;;;;11.88;4.82;;;3.20;89.90;;;;;;10040064;28;20057;-66
2021/01/06 21:08:04;;;;;;;10.85;4.97;;;3.30;89.70;;;;;;10038304;28;20053;-66
2021/01/06 21:12:54;;;;;;;9.70;4.20;;;3.40;89.10;;;;;;10036911;28;20048;-67
2021/01/06 21:17:46;;;;;;;9.88;4.20;;;3.30;89.30;;;;;;10037467;28;20100;-67
2021/01/06 21:22:37;;;;;;;12.05;5.57;;;3.20;89.60;;;;;;10036298;28;20029;-67
2021/01/06 21:27:27;;;;;;;12.75;5.03;;;3.30;89.40;;;;;;10039529;28;20037;-65
2021/01/06 21:32:18;;;;;;;11.30;5.35;;;3.40;89.20;;;;;;10034384;28;20533;-66
2021/01/06 21:37:09;;;;;;;10.23;5.25;;;3.40;89.40;;;;;;10031843;28;20104;-67
2021/01/06 21:42:00;;;;;;;14.48;5.88;;;3.30;89.40;;;;;;10037448;28;20037;-61
2021/01/06 21:46:51;;;;;;;14.45;5.28;;;3.30;89.60;;;;;;10038132;28;20426;-62
2021/01/06 21:51:41;;;;;;;13.38;5.30;;;3.40;89.40;;;;;;10035817;28;20055;-61
2021/01/06 21:56:32;;;;;;;15.80;6.53;;;3.30;89.50;;;;;;10033638;28;20037;-62
2021/01/06 22:01:23;;;;;;;17.17;6.35;;;3.30;89.70;;;;;;10019867;28;20041;-62
2021/01/06 22:06:21;;;;;;;15.52;6.22;;;3.20;89.50;;;;;;10040828;28;20037;-62
2021/01/06 22:11:12;;;;;;;19.08;7.22;;;3.30;89.70;;;;;;10040852;28;20037;-61
2021/01/06 22:16:03;;;;;;;12.80;6.18;;;3.30;89.60;;;;;;10027508;28;20084;-62
2021/01/06 22:20:54;;;;;;;16.05;6.85;;;3.50;89.40;;;;;;10045581;28;20038;-62
2021/01/06 22:25:44;;;;;;;15.38;6.70;;;3.40;89.20;;;;;;10043205;28;20116;-62
2021/01/06 22:30:35;;;;;;;18.42;7.25;;;3.30;89.50;;;;;;10026426;28;20417;-62
2021/01/06 22:35:26;;;;;;;15.45;6.55;;;3.20;89.80;;;;;;10040480;28;20065;-61
2021/01/06 22:40:16;;;;;;;19.63;8.65;;;3.20;89.90;;;;;;10047898;28;20033;-64
2021/01/06 22:45:09;;;;;;;19.38;7.78;;;3.20;89.70;;;;;;10047990;28;20527;-62
2021/01/06 22:50:00;;;;;;;22.05;7.28;;;3.30;89.50;;;;;;10046819;28;20037;-61
2021/01/06 22:54:51;;;;;;;22.27;8.70;;;3.30;89.60;;;;;;10042860;28;20049;-61
2021/01/06 22:59:41;;;;;;;19.65;8.68;;;3.20;89.80;;;;;;10042372;28;20037;-62
2021/01/06 23:04:32;;;;;;;22.85;8.05;;;3.30;89.90;;;;;;10038531;28;20049;-61
2021/01/06 23:09:22;;;;;;;14.60;6.63;;;3.20;89.90;;;;;;10043836;28;20041;-63
2021/01/06 23:14:13;;;;;;;18.80;6.68;;;3.40;89.50;;;;;;10039534;28;20089;-64
2021/01/06 23:19:04;;;;;;;21.70;8.52;;;3.30;89.50;;;;;;10044990;28;20495;-61
2021/01/06 23:23:54;;;;;;;17.77;7.10;;;3.30;89.80;;;;;;10041355;28;20085;-66
2021/01/06 23:28:45;;;;;;;18.60;7.40;;;3.30;89.80;;;;;;10044679;28;20087;-61
2021/01/06 23:33:36;;;;;;;15.27;6.53;;;3.40;89.70;;;;;;10042109;28;20037;-62
2021/01/06 23:38:27;;;;;;;18.77;7.40;;;3.40;89.40;;;;;;10039447;28;20040;-61
2021/01/06 23:43:18;;;;;;;17.58;7.47;;;3.40;89.30;;;;;;10047310;28;20113;-61
2021/01/06 23:48:09;;;;;;;18.65;8.13;;;3.40;89.40;;;;;;10040820;28;20063;-62
2021/01/06 23:53:00;;;;;;;16.67;6.22;;;3.30;89.70;;;;;;10038060;28;20567;-61
2021/01/06 23:57:50;;;;;;;18.33;7.05;;;3.40;89.40;;;;;;10042271;28;20037;-62
